sensor_id;sensor_type;location;lat;lon;timestamp;temperature;humidity
23233;DHT22;11785;49.500;8.288;2023-12-20T00:02:13;5.90;99.90
23233;DHT22;11785;49.500;8.288;2023-12-20T00:04:39;5.80;99.90
23233;DHT22;11785;49.500;8.288;2023-12-20T00:07:05;5.80;99.90
23233;DHT22;11785;49.500;8.288;2023-12-20T00:09:30;5.80;99.90
23233;DHT22;11785;49.500;8.288;2023-12-20T00:11:56;5.80;99.90
23233;DHT22;11785;49.500;8.288;2023-12-20T00:14:22;5.90;99.90
23233;DHT22;11785;49.500;8.288;2023-12-20T00:16:47;5.90;99.90
23233;DHT22;11785;49.500;8.288;2023-12-20T00:19:13;5.80;99.90
23233;DHT22;11785;49.500;8.288;2023-12-20T00:21:38;5.80;99.90
23233;DHT22;11785;49.500;8.288;2023-12-20T00:24:04;5.80;99.90
23233;DHT22;11785;49.500;8.288;2023-12-20T00:26:30;5.80;99.90
23233;DHT22;11785;49.500;8.288;2023-12-20T00:28:56;5.80;99.90
23233;DHT22;11785;49.500;8.288;2023-12-20T00:31:21;5.80;99.90
23233;DHT22;11785;49.500;8.288;2023-12-20T00:33:47;5.80;99.90
23233;DHT22;11785;49.500;8.288;2023-12-20T00:36:12;5.70;99.90
23233;DHT22;11785;49.500;8.288;2023-12-20T00:38:38;5.70;99.90
23233;DHT22;11785;49.500;8.288;2023-12-20T00:41:04;5.70;99.90
23233;DHT22;11785;49.500;8.288;2023-12-20T00:43:29;5.70;99.90
23233;DHT22;11785;49.500;8.288;2023-12-20T00:45:55;5.70;99.90
23233;DHT22;11785;49.500;8.288;2023-12-20T00:48:21;5.70;99.90
23233;DHT22;11785;49.500;8.288;2023-12-20T00:50:46;5.60;99.90
23233;DHT22;11785;49.500;8.288;2023-12-20T00:53:12;5.60;99.90
23233;DHT22;11785;49.500;8.288;2023-12-20T00:55:37;5.60;99.90
23233;DHT22;11785;49.500;8.288;2023-12-20T00:58:03;5.60;99.90
23233;DHT22;11785;49.500;8.288;2023-12-20T01:00:29;5.60;99.90
23233;DHT22;11785;49.500;8.288;2023-12-20T01:02:54;5.60;99.90
23233;DHT22;11785;49.500;8.288;2023-12-20T01:05:20;5.50;99.90
23233;DHT22;11785;49.500;8.288;2023-12-20T01:07:48;5.50;99.90
23233;DHT22;11785;49.500;8.288;2023-12-20T01:10:14;5.50;99.90
23233;DHT22;11785;49.500;8.288;2023-12-20T01:12:40;5.50;99.90
23233;DHT22;11785;49.500;8.288;2023-12-20T01:15:06;5.40;99.90
23233;DHT22;11785;49.500;8.288;2023-12-20T01:17:31;5.40;99.90
23233;DHT22;11785;49.500;8.288;2023-12-20T01:19:57;5.40;99.90
23233;DHT22;11785;49.500;8.288;2023-12-20T01:22:23;5.40;99.90
23233;DHT22;11785;49.500;8.288;2023-12-20T01:24:49;5.30;99.90
23233;DHT22;11785;49.500;8.288;2023-12-20T01:27:14;5.30;99.90
23233;DHT22;11785;49.500;8.288;2023-12-20T01:29:40;5.30;99.90
23233;DHT22;11785;49.500;8.288;2023-12-20T01:32:06;5.30;99.90
23233;DHT22;11785;49.500;8.288;2023-12-20T01:34:31;5.40;99.90
23233;DHT22;11785;49.500;8.288;2023-12-20T01:36:57;5.40;99.90
23233;DHT22;11785;49.500;8.288;2023-12-20T01:39:23;5.30;99.90
23233;DHT22;11785;49.500;8.288;2023-12-20T01:41:48;5.30;99.90
23233;DHT22;11785;49.500;8.288;2023-12-20T01:44:14;5.30;99.90
23233;DHT22;11785;49.500;8.288;2023-12-20T01:46:39;5.30;99.90
23233;DHT22;11785;49.500;8.288;2023-12-20T01:49:06;5.30;99.90
23233;DHT22;11785;49.500;8.288;2023-12-20T01:51:32;5.30;99.90
23233;DHT22;11785;49.500;8.288;2023-12-20T01:53:59;5.30;99.90
23233;DHT22;11785;49.500;8.288;2023-12-20T01:56:26;5.30;99.90
23233;DHT22;11785;49.500;8.288;2023-12-20T01:58:54;5.30;99.90
23233;DHT22;11785;49.500;8.288;2023-12-20T02:01:21;5.30;99.90
23233;DHT22;11785;49.500;8.288;2023-12-20T02:03:47;5.30;99.90
23233;DHT22;11785;49.500;8.288;2023-12-20T02:06:13;5.30;99.90
23233;DHT22;11785;49.500;8.288;2023-12-20T02:08:39;5.20;99.90
23233;DHT22;11785;49.500;8.288;2023-12-20T02:11:04;5.30;99.90
23233;DHT22;11785;49.500;8.288;2023-12-20T02:13:30;5.30;99.90
23233;DHT22;11785;49.500;8.288;2023-12-20T02:15:56;5.30;99.90
23233;DHT22;11785;49.500;8.288;2023-12-20T02:18:22;5.30;99.90
23233;DHT22;11785;49.500;8.288;2023-12-20T02:20:48;5.30;99.90
23233;DHT22;11785;49.500;8.288;2023-12-20T02:23:13;5.30;99.90
23233;DHT22;11785;49.500;8.288;2023-12-20T02:25:39;5.30;99.90
23233;DHT22;11785;49.500;8.288;2023-12-20T02:28:05;5.30;99.90
23233;DHT22;11785;49.500;8.288;2023-12-20T02:30:31;5.30;99.90
23233;DHT22;11785;49.500;8.288;2023-12-20T02:32:56;5.30;99.90
23233;DHT22;11785;49.500;8.288;2023-12-20T02:35:22;5.30;99.90
23233;DHT22;11785;49.500;8.288;2023-12-20T02:37:48;5.30;99.90
23233;DHT22;11785;49.500;8.288;2023-12-20T02:40:13;5.30;99.90
23233;DHT22;11785;49.500;8.288;2023-12-20T02:42:39;5.30;99.90
23233;DHT22;11785;49.500;8.288;2023-12-20T02:45:05;5.30;99.90
23233;DHT22;11785;49.500;8.288;2023-12-20T02:47:31;5.30;99.90
23233;DHT22;11785;49.500;8.288;2023-12-20T02:49:56;5.20;99.90
23233;DHT22;11785;49.500;8.288;2023-12-20T02:52:25;5.20;99.90
23233;DHT22;11785;49.500;8.288;2023-12-20T02:54:51;5.20;99.90
23233;DHT22;11785;49.500;8.288;2023-12-20T02:57:16;5.20;99.90
23233;DHT22;11785;49.500;8.288;2023-12-20T02:59:42;5.20;99.90
23233;DHT22;11785;49.500;8.288;2023-12-20T03:02:07;5.20;99.90
23233;DHT22;11785;49.500;8.288;2023-12-20T03:04:33;5.20;99.90
23233;DHT22;11785;49.500;8.288;2023-12-20T03:06:58;5.20;99.90
23233;DHT22;11785;49.500;8.288;2023-12-20T03:09:24;5.30;99.90
23233;DHT22;11785;49.500;8.288;2023-12-20T03:11:49;5.30;99.90
23233;DHT22;11785;49.500;8.288;2023-12-20T03:14:15;5.30;99.90
23233;DHT22;11785;49.500;8.288;2023-12-20T03:16:40;5.30;99.90
23233;DHT22;11785;49.500;8.288;2023-12-20T03:19:06;5.30;99.90
23233;DHT22;11785;49.500;8.288;2023-12-20T03:21:31;5.20;99.90
23233;DHT22;11785;49.500;8.288;2023-12-20T03:23:57;5.20;99.90
23233;DHT22;11785;49.500;8.288;2023-12-20T03:26:24;5.20;99.90
23233;DHT22;11785;49.500;8.288;2023-12-20T03:28:49;5.20;99.90
23233;DHT22;11785;49.500;8.288;2023-12-20T03:31:15;5.30;99.90
23233;DHT22;11785;49.500;8.288;2023-12-20T03:33:40;5.20;99.90
23233;DHT22;11785;49.500;8.288;2023-12-20T03:36:06;5.30;99.90
23233;DHT22;11785;49.500;8.288;2023-12-20T03:38:32;5.20;99.90
23233;DHT22;11785;49.500;8.288;2023-12-20T03:40:57;5.30;99.90
23233;DHT22;11785;49.500;8.288;2023-12-20T03:43:23;5.30;99.90
23233;DHT22;11785;49.500;8.288;2023-12-20T03:45:48;5.30;99.90
23233;DHT22;11785;49.500;8.288;2023-12-20T03:48:14;5.30;99.90
23233;DHT22;11785;49.500;8.288;2023-12-20T03:50:39;5.30;99.90
23233;DHT22;11785;49.500;8.288;2023-12-20T03:53:05;5.30;99.90
23233;DHT22;11785;49.500;8.288;2023-12-20T03:55:30;5.30;99.90
23233;DHT22;11785;49.500;8.288;2023-12-20T03:57:56;5.30;99.90
23233;DHT22;11785;49.500;8.288;2023-12-20T04:00:21;5.30;99.90
23233;DHT22;11785;49.500;8.288;2023-12-20T04:02:47;5.40;99.90
23233;DHT22;11785;49.500;8.288;2023-12-20T04:05:13;5.50;99.90
23233;DHT22;11785;49.500;8.288;2023-12-20T04:07:38;5.60;99.90
23233;DHT22;11785;49.500;8.288;2023-12-20T04:10:05;5.60;99.90
23233;DHT22;11785;49.500;8.288;2023-12-20T04:12:31;5.70;99.90
23233;DHT22;11785;49.500;8.288;2023-12-20T04:14:57;5.70;99.90
23233;DHT22;11785;49.500;8.288;2023-12-20T04:17:22;5.70;99.90
23233;DHT22;11785;49.500;8.288;2023-12-20T04:19:51;5.80;99.90
23233;DHT22;11785;49.500;8.288;2023-12-20T04:22:20;5.80;99.90
23233;DHT22;11785;49.500;8.288;2023-12-20T04:24:46;5.90;99.90
23233;DHT22;11785;49.500;8.288;2023-12-20T04:27:11;5.90;99.90
23233;DHT22;11785;49.500;8.288;2023-12-20T04:29:37;6.00;99.90
23233;DHT22;11785;49.500;8.288;2023-12-20T04:32:03;6.00;99.90
23233;DHT22;11785;49.500;8.288;2023-12-20T04:34:29;6.00;99.90
23233;DHT22;11785;49.500;8.288;2023-12-20T04:36:54;6.00;99.90
23233;DHT22;11785;49.500;8.288;2023-12-20T04:39:20;6.10;99.90
23233;DHT22;11785;49.500;8.288;2023-12-20T04:41:45;6.00;99.90
23233;DHT22;11785;49.500;8.288;2023-12-20T04:44:13;6.00;99.90
23233;DHT22;11785;49.500;8.288;2023-12-20T04:46:39;6.00;99.90
23233;DHT22;11785;49.500;8.288;2023-12-20T04:49:04;6.00;99.90
23233;DHT22;11785;49.500;8.288;2023-12-20T04:51:30;6.00;99.90
23233;DHT22;11785;49.500;8.288;2023-12-20T04:54:00;5.90;99.90
23233;DHT22;11785;49.500;8.288;2023-12-20T04:56:26;5.90;99.90
23233;DHT22;11785;49.500;8.288;2023-12-20T04:58:51;5.90;99.90
23233;DHT22;11785;49.500;8.288;2023-12-20T05:01:17;5.90;99.90
23233;DHT22;11785;49.500;8.288;2023-12-20T05:03:43;6.00;99.90
23233;DHT22;11785;49.500;8.288;2023-12-20T05:06:09;6.10;99.90
23233;DHT22;11785;49.500;8.288;2023-12-20T05:08:35;6.10;99.90
23233;DHT22;11785;49.500;8.288;2023-12-20T05:11:01;6.10;99.90
23233;DHT22;11785;49.500;8.288;2023-12-20T05:13:27;6.10;99.90
23233;DHT22;11785;49.500;8.288;2023-12-20T05:15:52;6.10;99.90
23233;DHT22;11785;49.500;8.288;2023-12-20T05:18:18;6.20;99.90
23233;DHT22;11785;49.500;8.288;2023-12-20T05:20:43;6.30;99.90
23233;DHT22;11785;49.500;8.288;2023-12-20T05:23:09;6.30;99.90
23233;DHT22;11785;49.500;8.288;2023-12-20T05:25:35;6.30;99.90
23233;DHT22;11785;49.500;8.288;2023-12-20T05:28:00;6.40;99.90
23233;DHT22;11785;49.500;8.288;2023-12-20T05:30:26;6.30;99.90
23233;DHT22;11785;49.500;8.288;2023-12-20T05:32:52;6.30;99.90
23233;DHT22;11785;49.500;8.288;2023-12-20T05:35:17;6.30;99.90
23233;DHT22;11785;49.500;8.288;2023-12-20T05:37:43;6.20;99.90
23233;DHT22;11785;49.500;8.288;2023-12-20T05:40:08;6.10;99.90
23233;DHT22;11785;49.500;8.288;2023-12-20T05:42:37;6.00;99.90
23233;DHT22;11785;49.500;8.288;2023-12-20T05:45:04;6.00;99.90
23233;DHT22;11785;49.500;8.288;2023-12-20T05:47:30;5.90;99.90
23233;DHT22;11785;49.500;8.288;2023-12-20T05:49:55;5.90;99.90
23233;DHT22;11785;49.500;8.288;2023-12-20T05:52:21;5.90;99.90
23233;DHT22;11785;49.500;8.288;2023-12-20T05:54:47;5.90;99.90
23233;DHT22;11785;49.500;8.288;2023-12-20T05:57:13;5.80;99.90
23233;DHT22;11785;49.500;8.288;2023-12-20T05:59:38;5.70;99.90
23233;DHT22;11785;49.500;8.288;2023-12-20T06:02:04;5.70;99.90
23233;DHT22;11785;49.500;8.288;2023-12-20T06:04:30;5.60;99.90
23233;DHT22;11785;49.500;8.288;2023-12-20T06:06:55;5.60;99.90
23233;DHT22;11785;49.500;8.288;2023-12-20T06:09:21;5.60;99.90
23233;DHT22;11785;49.500;8.288;2023-12-20T06:11:47;5.50;99.90
23233;DHT22;11785;49.500;8.288;2023-12-20T06:14:12;5.40;99.90
23233;DHT22;11785;49.500;8.288;2023-12-20T06:16:38;5.30;99.90
23233;DHT22;11785;49.500;8.288;2023-12-20T06:19:03;5.30;99.90
23233;DHT22;11785;49.500;8.288;2023-12-20T06:21:29;5.20;99.90
23233;DHT22;11785;49.500;8.288;2023-12-20T06:23:54;5.20;99.90
23233;DHT22;11785;49.500;8.288;2023-12-20T06:26:20;5.10;99.90
23233;DHT22;11785;49.500;8.288;2023-12-20T06:28:45;5.00;99.90
23233;DHT22;11785;49.500;8.288;2023-12-20T06:31:11;5.00;99.90
23233;DHT22;11785;49.500;8.288;2023-12-20T06:33:38;5.00;99.90
23233;DHT22;11785;49.500;8.288;2023-12-20T06:36:06;5.10;99.90
23233;DHT22;11785;49.500;8.288;2023-12-20T06:38:32;5.10;99.90
23233;DHT22;11785;49.500;8.288;2023-12-20T06:40:57;5.00;99.90
23233;DHT22;11785;49.500;8.288;2023-12-20T06:43:24;5.00;99.90
23233;DHT22;11785;49.500;8.288;2023-12-20T06:45:49;4.90;99.90
23233;DHT22;11785;49.500;8.288;2023-12-20T06:48:16;4.80;99.90
23233;DHT22;11785;49.500;8.288;2023-12-20T06:50:41;4.70;99.90
23233;DHT22;11785;49.500;8.288;2023-12-20T06:53:07;4.60;99.90
23233;DHT22;11785;49.500;8.288;2023-12-20T06:55:35;4.60;99.90
23233;DHT22;11785;49.500;8.288;2023-12-20T06:58:01;4.50;99.90
23233;DHT22;11785;49.500;8.288;2023-12-20T07:00:27;4.30;99.90
23233;DHT22;11785;49.500;8.288;2023-12-20T07:02:52;4.20;99.90
23233;DHT22;11785;49.500;8.288;2023-12-20T07:05:18;4.20;99.90
23233;DHT22;11785;49.500;8.288;2023-12-20T07:07:45;4.10;99.90
23233;DHT22;11785;49.500;8.288;2023-12-20T07:10:12;4.30;99.90
23233;DHT22;11785;49.500;8.288;2023-12-20T07:12:37;4.30;99.90
23233;DHT22;11785;49.500;8.288;2023-12-20T07:15:03;4.20;99.90
23233;DHT22;11785;49.500;8.288;2023-12-20T07:17:30;4.00;99.90
23233;DHT22;11785;49.500;8.288;2023-12-20T07:19:56;3.80;99.90
23233;DHT22;11785;49.500;8.288;2023-12-20T07:22:22;3.90;99.90
23233;DHT22;11785;49.500;8.288;2023-12-20T07:24:47;3.80;99.90
23233;DHT22;11785;49.500;8.288;2023-12-20T07:27:13;3.90;99.90
23233;DHT22;11785;49.500;8.288;2023-12-20T07:29:39;3.90;99.90
23233;DHT22;11785;49.500;8.288;2023-12-20T07:32:05;3.90;99.90
23233;DHT22;11785;49.500;8.288;2023-12-20T07:34:30;3.80;99.90
23233;DHT22;11785;49.500;8.288;2023-12-20T07:36:56;3.70;99.90
23233;DHT22;11785;49.500;8.288;2023-12-20T07:39:21;3.60;99.90
23233;DHT22;11785;49.500;8.288;2023-12-20T07:41:47;3.80;99.90
23233;DHT22;11785;49.500;8.288;2023-12-20T07:44:12;3.70;99.90
23233;DHT22;11785;49.500;8.288;2023-12-20T07:46:38;3.70;99.90
23233;DHT22;11785;49.500;8.288;2023-12-20T07:49:04;3.70;99.90
23233;DHT22;11785;49.500;8.288;2023-12-20T07:51:30;3.50;99.90
23233;DHT22;11785;49.500;8.288;2023-12-20T07:53:55;3.50;99.90
23233;DHT22;11785;49.500;8.288;2023-12-20T07:56:21;3.40;99.90
23233;DHT22;11785;49.500;8.288;2023-12-20T07:58:47;3.40;99.90
23233;DHT22;11785;49.500;8.288;2023-12-20T08:01:15;3.40;99.90
23233;DHT22;11785;49.500;8.288;2023-12-20T08:03:41;3.40;99.90
23233;DHT22;11785;49.500;8.288;2023-12-20T08:06:06;3.50;99.90
23233;DHT22;11785;49.500;8.288;2023-12-20T08:08:32;3.60;99.90
23233;DHT22;11785;49.500;8.288;2023-12-20T08:10:58;3.80;99.90
23233;DHT22;11785;49.500;8.288;2023-12-20T08:13:25;4.00;99.90
23233;DHT22;11785;49.500;8.288;2023-12-20T08:15:52;4.10;99.90
23233;DHT22;11785;49.500;8.288;2023-12-20T08:18:17;4.30;99.90
23233;DHT22;11785;49.500;8.288;2023-12-20T08:20:43;4.50;99.90
23233;DHT22;11785;49.500;8.288;2023-12-20T08:23:09;4.90;99.90
23233;DHT22;11785;49.500;8.288;2023-12-20T08:25:34;5.00;99.90
23233;DHT22;11785;49.500;8.288;2023-12-20T08:28:02;5.10;99.90
23233;DHT22;11785;49.500;8.288;2023-12-20T08:30:27;5.20;99.90
23233;DHT22;11785;49.500;8.288;2023-12-20T08:32:53;5.30;99.90
23233;DHT22;11785;49.500;8.288;2023-12-20T08:35:18;5.30;99.90
23233;DHT22;11785;49.500;8.288;2023-12-20T08:37:45;5.40;99.90
23233;DHT22;11785;49.500;8.288;2023-12-20T08:40:10;5.50;99.90
23233;DHT22;11785;49.500;8.288;2023-12-20T08:42:36;5.60;99.90
23233;DHT22;11785;49.500;8.288;2023-12-20T08:45:02;5.70;99.90
23233;DHT22;11785;49.500;8.288;2023-12-20T08:47:29;5.80;99.90
23233;DHT22;11785;49.500;8.288;2023-12-20T08:49:55;5.90;99.90
23233;DHT22;11785;49.500;8.288;2023-12-20T08:52:22;5.90;99.90
23233;DHT22;11785;49.500;8.288;2023-12-20T08:54:49;5.90;99.90
23233;DHT22;11785;49.500;8.288;2023-12-20T08:57:18;6.00;99.90
23233;DHT22;11785;49.500;8.288;2023-12-20T08:59:43;6.00;99.90
23233;DHT22;11785;49.500;8.288;2023-12-20T09:02:09;6.10;99.90
23233;DHT22;11785;49.500;8.288;2023-12-20T09:04:34;6.20;99.90
23233;DHT22;11785;49.500;8.288;2023-12-20T09:07:00;6.30;99.90
23233;DHT22;11785;49.500;8.288;2023-12-20T09:09:26;6.40;99.90
23233;DHT22;11785;49.500;8.288;2023-12-20T09:11:52;6.30;99.90
23233;DHT22;11785;49.500;8.288;2023-12-20T09:14:17;6.30;99.90
23233;DHT22;11785;49.500;8.288;2023-12-20T09:16:43;6.40;99.90
23233;DHT22;11785;49.500;8.288;2023-12-20T09:19:08;6.40;99.90
23233;DHT22;11785;49.500;8.288;2023-12-20T09:21:34;6.60;99.90
23233;DHT22;11785;49.500;8.288;2023-12-20T09:24:00;6.70;99.90
23233;DHT22;11785;49.500;8.288;2023-12-20T09:26:25;6.80;99.90
23233;DHT22;11785;49.500;8.288;2023-12-20T09:28:51;6.90;99.90
23233;DHT22;11785;49.500;8.288;2023-12-20T09:31:16;6.90;99.90
23233;DHT22;11785;49.500;8.288;2023-12-20T09:33:42;6.90;99.90
23233;DHT22;11785;49.500;8.288;2023-12-20T09:36:08;7.00;99.90
23233;DHT22;11785;49.500;8.288;2023-12-20T09:38:33;7.00;99.90
23233;DHT22;11785;49.500;8.288;2023-12-20T09:40:59;7.00;99.90
23233;DHT22;11785;49.500;8.288;2023-12-20T09:43:27;6.90;99.90
23233;DHT22;11785;49.500;8.288;2023-12-20T09:46:00;6.80;99.90
23233;DHT22;11785;49.500;8.288;2023-12-20T09:48:27;6.80;99.90
23233;DHT22;11785;49.500;8.288;2023-12-20T09:50:54;6.80;99.90
23233;DHT22;11785;49.500;8.288;2023-12-20T09:53:20;6.80;99.90
23233;DHT22;11785;49.500;8.288;2023-12-20T09:55:46;6.90;99.90
23233;DHT22;11785;49.500;8.288;2023-12-20T09:58:12;7.00;99.90
23233;DHT22;11785;49.500;8.288;2023-12-20T10:00:37;7.10;99.90
23233;DHT22;11785;49.500;8.288;2023-12-20T10:03:03;7.20;99.90
23233;DHT22;11785;49.500;8.288;2023-12-20T10:05:32;7.30;99.90
23233;DHT22;11785;49.500;8.288;2023-12-20T10:07:58;7.30;99.90
23233;DHT22;11785;49.500;8.288;2023-12-20T10:10:26;7.30;99.90
23233;DHT22;11785;49.500;8.288;2023-12-20T10:13:04;7.30;99.90
23233;DHT22;11785;49.500;8.288;2023-12-20T10:15:31;7.20;99.90
23233;DHT22;11785;49.500;8.288;2023-12-20T10:17:57;7.20;99.90
23233;DHT22;11785;49.500;8.288;2023-12-20T10:20:23;7.10;99.90
23233;DHT22;11785;49.500;8.288;2023-12-20T10:22:49;7.10;99.90
23233;DHT22;11785;49.500;8.288;2023-12-20T10:25:15;7.10;99.90
23233;DHT22;11785;49.500;8.288;2023-12-20T10:27:40;7.10;99.90
23233;DHT22;11785;49.500;8.288;2023-12-20T10:30:06;7.10;99.90
23233;DHT22;11785;49.500;8.288;2023-12-20T10:32:32;7.10;99.90
23233;DHT22;11785;49.500;8.288;2023-12-20T10:34:58;7.00;99.90
23233;DHT22;11785;49.500;8.288;2023-12-20T10:37:24;7.10;99.90
23233;DHT22;11785;49.500;8.288;2023-12-20T10:39:51;7.30;99.90
23233;DHT22;11785;49.500;8.288;2023-12-20T10:42:22;7.40;99.90
23233;DHT22;11785;49.500;8.288;2023-12-20T10:44:49;7.50;99.90
23233;DHT22;11785;49.500;8.288;2023-12-20T10:47:15;7.60;99.90
23233;DHT22;11785;49.500;8.288;2023-12-20T10:49:42;7.60;99.90
23233;DHT22;11785;49.500;8.288;2023-12-20T10:52:09;7.70;99.90
23233;DHT22;11785;49.500;8.288;2023-12-20T10:54:34;7.70;99.90
23233;DHT22;11785;49.500;8.288;2023-12-20T10:57:00;7.80;99.90
23233;DHT22;11785;49.500;8.288;2023-12-20T10:59:36;7.70;99.90
23233;DHT22;11785;49.500;8.288;2023-12-20T11:02:03;7.80;99.90
23233;DHT22;11785;49.500;8.288;2023-12-20T11:04:41;7.70;99.90
23233;DHT22;11785;49.500;8.288;2023-12-20T11:07:23;7.60;99.90
23233;DHT22;11785;49.500;8.288;2023-12-20T11:15:35;7.70;99.90
23233;DHT22;11785;49.500;8.288;2023-12-20T11:18:01;7.80;99.90
23233;DHT22;11785;49.500;8.288;2023-12-20T11:20:40;7.80;99.90
23233;DHT22;11785;49.500;8.288;2023-12-20T11:23:08;7.90;99.90
23233;DHT22;11785;49.500;8.288;2023-12-20T11:25:52;7.90;99.90
23233;DHT22;11785;49.500;8.288;2023-12-20T11:28:22;8.00;99.90
23233;DHT22;11785;49.500;8.288;2023-12-20T11:30:51;8.10;99.90
23233;DHT22;11785;49.500;8.288;2023-12-20T11:33:22;8.10;99.90
23233;DHT22;11785;49.500;8.288;2023-12-20T11:35:48;8.00;99.90
23233;DHT22;11785;49.500;8.288;2023-12-20T11:38:14;8.10;99.90
23233;DHT22;11785;49.500;8.288;2023-12-20T11:40:42;8.10;99.90
23233;DHT22;11785;49.500;8.288;2023-12-20T11:43:08;8.00;99.90
23233;DHT22;11785;49.500;8.288;2023-12-20T11:45:34;7.80;99.90
23233;DHT22;11785;49.500;8.288;2023-12-20T11:48:02;7.80;99.90
23233;DHT22;11785;49.500;8.288;2023-12-20T11:50:28;7.90;99.90
23233;DHT22;11785;49.500;8.288;2023-12-20T11:52:55;7.90;99.90
23233;DHT22;11785;49.500;8.288;2023-12-20T11:55:21;7.90;99.90
23233;DHT22;11785;49.500;8.288;2023-12-20T11:57:47;7.90;99.90
23233;DHT22;11785;49.500;8.288;2023-12-20T12:00:14;7.90;99.90
23233;DHT22;11785;49.500;8.288;2023-12-20T12:02:39;7.80;99.90
23233;DHT22;11785;49.500;8.288;2023-12-20T12:05:05;7.70;99.90
23233;DHT22;11785;49.500;8.288;2023-12-20T12:07:32;7.70;99.90
23233;DHT22;11785;49.500;8.288;2023-12-20T12:09:57;7.70;99.90
23233;DHT22;11785;49.500;8.288;2023-12-20T12:12:24;7.80;99.90
23233;DHT22;11785;49.500;8.288;2023-12-20T12:14:50;7.80;99.90
23233;DHT22;11785;49.500;8.288;2023-12-20T12:17:16;8.00;99.90
23233;DHT22;11785;49.500;8.288;2023-12-20T12:19:43;8.10;99.90
23233;DHT22;11785;49.500;8.288;2023-12-20T12:22:11;8.00;99.90
23233;DHT22;11785;49.500;8.288;2023-12-20T12:24:46;8.00;99.90
23233;DHT22;11785;49.500;8.288;2023-12-20T12:27:13;8.00;99.90
23233;DHT22;11785;49.500;8.288;2023-12-20T12:29:39;8.00;99.90
23233;DHT22;11785;49.500;8.288;2023-12-20T12:32:07;7.90;99.90
23233;DHT22;11785;49.500;8.288;2023-12-20T12:34:36;7.90;99.90
23233;DHT22;11785;49.500;8.288;2023-12-20T12:37:03;7.90;99.90
23233;DHT22;11785;49.500;8.288;2023-12-20T12:39:29;7.90;99.90
23233;DHT22;11785;49.500;8.288;2023-12-20T12:41:56;7.80;99.90
23233;DHT22;11785;49.500;8.288;2023-12-20T12:44:22;7.80;99.90
23233;DHT22;11785;49.500;8.288;2023-12-20T12:46:50;7.70;99.90
23233;DHT22;11785;49.500;8.288;2023-12-20T12:49:16;7.70;99.90
23233;DHT22;11785;49.500;8.288;2023-12-20T12:51:43;7.60;99.90
23233;DHT22;11785;49.500;8.288;2023-12-20T12:54:09;7.60;99.90
23233;DHT22;11785;49.500;8.288;2023-12-20T12:56:35;7.60;99.90
23233;DHT22;11785;49.500;8.288;2023-12-20T12:59:01;7.50;99.90
23233;DHT22;11785;49.500;8.288;2023-12-20T13:01:27;7.50;99.90
23233;DHT22;11785;49.500;8.288;2023-12-20T13:03:53;7.50;99.90
23233;DHT22;11785;49.500;8.288;2023-12-20T13:06:19;7.60;99.90
23233;DHT22;11785;49.500;8.288;2023-12-20T13:08:45;7.70;99.90
23233;DHT22;11785;49.500;8.288;2023-12-20T13:11:10;7.70;99.90
23233;DHT22;11785;49.500;8.288;2023-12-20T13:13:36;7.60;99.90
23233;DHT22;11785;49.500;8.288;2023-12-20T13:16:01;7.60;99.90
23233;DHT22;11785;49.500;8.288;2023-12-20T13:18:27;7.60;99.90
23233;DHT22;11785;49.500;8.288;2023-12-20T13:20:53;7.70;99.90
23233;DHT22;11785;49.500;8.288;2023-12-20T13:23:18;7.80;99.90
23233;DHT22;11785;49.500;8.288;2023-12-20T13:25:44;7.70;99.90
23233;DHT22;11785;49.500;8.288;2023-12-20T13:28:11;7.90;99.90
23233;DHT22;11785;49.500;8.288;2023-12-20T13:30:38;8.60;99.90
23233;DHT22;11785;49.500;8.288;2023-12-20T13:33:04;9.70;95.50
23233;DHT22;11785;49.500;8.288;2023-12-20T13:35:30;9.90;94.40
23233;DHT22;11785;49.500;8.288;2023-12-20T13:37:57;9.10;96.70
23233;DHT22;11785;49.500;8.288;2023-12-20T13:40:23;9.40;96.10
23233;DHT22;11785;49.500;8.288;2023-12-20T13:42:48;9.90;93.70
23233;DHT22;11785;49.500;8.288;2023-12-20T13:45:14;9.40;94.90
23233;DHT22;11785;49.500;8.288;2023-12-20T13:47:39;8.80;97.30
23233;DHT22;11785;49.500;8.288;2023-12-20T13:50:05;8.40;99.20
23233;DHT22;11785;49.500;8.288;2023-12-20T13:52:31;8.10;99.90
23233;DHT22;11785;49.500;8.288;2023-12-20T13:54:56;9.20;96.70
23233;DHT22;11785;49.500;8.288;2023-12-20T13:57:22;10.70;90.10
23233;DHT22;11785;49.500;8.288;2023-12-20T13:59:48;11.00;86.30
23233;DHT22;11785;49.500;8.288;2023-12-20T14:02:13;10.70;87.20
23233;DHT22;11785;49.500;8.288;2023-12-20T14:04:39;9.70;92.10
23233;DHT22;11785;49.500;8.288;2023-12-20T14:07:05;9.70;92.50
23233;DHT22;11785;49.500;8.288;2023-12-20T14:09:33;9.60;93.10
23233;DHT22;11785;49.500;8.288;2023-12-20T14:11:58;10.00;91.90
23233;DHT22;11785;49.500;8.288;2023-12-20T14:14:24;10.40;90.30
23233;DHT22;11785;49.500;8.288;2023-12-20T14:16:49;10.10;91.20
23233;DHT22;11785;49.500;8.288;2023-12-20T14:19:15;10.10;91.20
23233;DHT22;11785;49.500;8.288;2023-12-20T14:21:41;9.80;92.00
23233;DHT22;11785;49.500;8.288;2023-12-20T14:24:06;9.40;93.50
23233;DHT22;11785;49.500;8.288;2023-12-20T14:26:32;9.20;94.70
23233;DHT22;11785;49.500;8.288;2023-12-20T14:28:57;9.20;94.80
23233;DHT22;11785;49.500;8.288;2023-12-20T14:31:23;9.10;94.90
23233;DHT22;11785;49.500;8.288;2023-12-20T14:33:50;9.50;93.90
23233;DHT22;11785;49.500;8.288;2023-12-20T14:36:16;9.20;94.30
23233;DHT22;11785;49.500;8.288;2023-12-20T14:38:43;8.90;95.90
23233;DHT22;11785;49.500;8.288;2023-12-20T14:41:09;8.50;97.50
23233;DHT22;11785;49.500;8.288;2023-12-20T14:43:34;8.20;98.70
23233;DHT22;11785;49.500;8.288;2023-12-20T14:46:00;8.00;99.70
23233;DHT22;11785;49.500;8.288;2023-12-20T14:48:26;7.80;99.90
23233;DHT22;11785;49.500;8.288;2023-12-20T14:50:53;7.70;99.90
23233;DHT22;11785;49.500;8.288;2023-12-20T14:53:19;7.60;99.90
23233;DHT22;11785;49.500;8.288;2023-12-20T14:55:45;7.50;99.90
23233;DHT22;11785;49.500;8.288;2023-12-20T14:58:11;7.50;99.90
23233;DHT22;11785;49.500;8.288;2023-12-20T15:00:37;7.50;99.90
23233;DHT22;11785;49.500;8.288;2023-12-20T15:03:03;7.40;99.90
23233;DHT22;11785;49.500;8.288;2023-12-20T15:05:30;7.40;99.90
23233;DHT22;11785;49.500;8.288;2023-12-20T15:07:56;7.30;99.90
23233;DHT22;11785;49.500;8.288;2023-12-20T15:10:21;7.30;99.90
23233;DHT22;11785;49.500;8.288;2023-12-20T15:12:47;7.20;99.90
23233;DHT22;11785;49.500;8.288;2023-12-20T15:15:12;7.10;99.90
23233;DHT22;11785;49.500;8.288;2023-12-20T15:17:39;7.00;99.90
23233;DHT22;11785;49.500;8.288;2023-12-20T15:20:05;7.00;99.90
23233;DHT22;11785;49.500;8.288;2023-12-20T15:22:30;7.00;99.90
23233;DHT22;11785;49.500;8.288;2023-12-20T15:24:59;7.00;99.90
23233;DHT22;11785;49.500;8.288;2023-12-20T15:27:26;7.00;99.90
23233;DHT22;11785;49.500;8.288;2023-12-20T15:29:51;6.90;99.90
23233;DHT22;11785;49.500;8.288;2023-12-20T15:32:17;6.90;99.90
23233;DHT22;11785;49.500;8.288;2023-12-20T15:34:44;6.90;99.90
23233;DHT22;11785;49.500;8.288;2023-12-20T15:37:10;6.90;99.90
23233;DHT22;11785;49.500;8.288;2023-12-20T15:39:36;6.90;99.90
23233;DHT22;11785;49.500;8.288;2023-12-20T15:42:02;6.90;99.90
23233;DHT22;11785;49.500;8.288;2023-12-20T15:44:27;6.90;99.90